Contact Us:
Email: info@sawbill.com
Phone: (218)663-7150
Fax: (218)663-7980
Mail: 4620 Sawbill Trail
Box 2129
Tofte, MN 55615


Powered by
Movable Type 3.15
 
Sawbill Weather History Archives: May 2012
Current Sawbill Weather History | « April 2012 | June 2012 »


Date

High
Temperature

Low
Temperature

Barometric
Pressure

Relative
Humidity 7AM

9 AM
Temperature

Moisture

Snow

5/31/12 63 35 30.09 66% 47 0
5/30/12 52 34 30.18 80% 36 0
5/29/12 55 38 30.12 84% 39 0
5/28/12 68 45 29.90 81% 49 .08"
5/27/12 55 49 29.83 98% 53 .13"
5/26/12 61 43 30.12 95% 49 .18"
5/25/12 62 43 30.33 74% 43 Trace
5/24/12 58 49 29.95 96% 49 2.07"
5/23/12 62 49 29.71 98% 53 .83"
5/22/12 54 47 29.80 85% 50 .3"
5/21/12 65 46 30.18 77% 47 .04"
5/20/12 53 41 30.36 76% 50 .31"
5/19/12 81 53 30.06 97% 53 1"
5/18/12 80 53 30.03 65% 56 0
5/17/12 64 40 29.94 59% 53 Trace
5/16/12 61 40 30.18 48% 46 0
5/15/12 57 37 30.27 58% 41 0
5/14/12 73 50 29.91 22% 56 0
5/13/12 74 43 29.92 38% 50 0
5/12/12 65 40 30.27 38% 51 0
5/11/12 64 38 30.39 73% 40 Trace
5/10/12 67 37 30.03 62% 47 0
5/9/12 60 36 30.06 71% 37 0
5/8/12 49 31 29.92 96% 36 0
5/7/12 59 41 29.97 88% 44 .05"
5/6/12 57 42 30.03 95% 43 .17"
5/5/12 58 42 30.21 53% 48 0
5/4/12 46 40 30.27 75% 42 Trace
5/3/12 61 46 30.27 92% 46 .13"
5/2/12 67 50 30.03 93% 51 .39"
5/1/12 56 37 29.83 98% 56 .48"
 


Home I Trip Planning I Rentals and Outfitting I Reservations I Campgrounds I Sawbill Store I Sawbill News I Contact

© 1997 - 2017, Sawbill Canoe Outfitters, Inc. I Privacy Policy